sensor_id;sensor_type;location;lat;lon;timestamp;pressure;altitude;pressure_sealevel;temperature
8227;BMP180;4154;48.810;9.012;2022-07-12T00:02:19;97778.00;;;16.60
8227;BMP180;4154;48.810;9.012;2022-07-12T00:04:45;97771.00;;;16.60
8227;BMP180;4154;48.810;9.012;2022-07-12T00:07:11;97782.00;;;16.60
8227;BMP180;4154;48.810;9.012;2022-07-12T00:09:37;97782.00;;;16.50
8227;BMP180;4154;48.810;9.012;2022-07-12T00:12:04;97785.00;;;16.50
8227;BMP180;4154;48.810;9.012;2022-07-12T00:14:30;97778.00;;;16.50
8227;BMP180;4154;48.810;9.012;2022-07-12T00:16:56;97787.00;;;16.50
8227;BMP180;4154;48.810;9.012;2022-07-12T00:19:22;97777.00;;;16.40
8227;BMP180;4154;48.810;9.012;2022-07-12T00:21:48;97790.00;;;16.40
8227;BMP180;4154;48.810;9.012;2022-07-12T00:24:14;97783.00;;;16.40
8227;BMP180;4154;48.810;9.012;2022-07-12T00:26:40;97779.00;;;16.30
8227;BMP180;4154;48.810;9.012;2022-07-12T00:29:06;97783.00;;;16.30
8227;BMP180;4154;48.810;9.012;2022-07-12T00:31:32;97788.00;;;16.40
8227;BMP180;4154;48.810;9.012;2022-07-12T00:33:58;97788.00;;;16.30
8227;BMP180;4154;48.810;9.012;2022-07-12T00:36:24;97788.00;;;16.30
8227;BMP180;4154;48.810;9.012;2022-07-12T00:38:50;97784.00;;;16.30
8227;BMP180;4154;48.810;9.012;2022-07-12T00:41:15;97784.00;;;16.30
8227;BMP180;4154;48.810;9.012;2022-07-12T00:43:41;97789.00;;;16.30
8227;BMP180;4154;48.810;9.012;2022-07-12T00:46:07;97782.00;;;16.30
8227;BMP180;4154;48.810;9.012;2022-07-12T00:48:35;97770.00;;;16.30
8227;BMP180;4154;48.810;9.012;2022-07-12T00:51:01;97779.00;;;16.20
8227;BMP180;4154;48.810;9.012;2022-07-12T00:53:28;97769.00;;;16.30
8227;BMP180;4154;48.810;9.012;2022-07-12T00:55:56;97777.00;;;16.20
8227;BMP180;4154;48.810;9.012;2022-07-12T00:58:24;97775.00;;;16.20
8227;BMP180;4154;48.810;9.012;2022-07-12T01:00:50;97773.00;;;16.10
8227;BMP180;4154;48.810;9.012;2022-07-12T01:03:17;97782.00;;;16.10
8227;BMP180;4154;48.810;9.012;2022-07-12T01:05:43;97778.00;;;16.10
8227;BMP180;4154;48.810;9.012;2022-07-12T01:08:11;97777.00;;;16.10
8227;BMP180;4154;48.810;9.012;2022-07-12T01:10:39;97775.00;;;16.10
8227;BMP180;4154;48.810;9.012;2022-07-12T01:13:05;97775.00;;;16.10
8227;BMP180;4154;48.810;9.012;2022-07-12T01:15:32;97776.00;;;16.00
8227;BMP180;4154;48.810;9.012;2022-07-12T01:17:59;97770.00;;;16.00
8227;BMP180;4154;48.810;9.012;2022-07-12T01:20:26;97779.00;;;15.90
8227;BMP180;4154;48.810;9.012;2022-07-12T01:22:56;97772.00;;;15.90
8227;BMP180;4154;48.810;9.012;2022-07-12T01:25:26;97777.00;;;15.80
8227;BMP180;4154;48.810;9.012;2022-07-12T01:27:52;97780.00;;;15.80
8227;BMP180;4154;48.810;9.012;2022-07-12T01:30:19;97777.00;;;15.80
8227;BMP180;4154;48.810;9.012;2022-07-12T01:32:45;97779.00;;;15.80
8227;BMP180;4154;48.810;9.012;2022-07-12T01:35:11;97774.00;;;15.70
8227;BMP180;4154;48.810;9.012;2022-07-12T01:37:40;97777.00;;;15.70
8227;BMP180;4154;48.810;9.012;2022-07-12T01:40:09;97778.00;;;15.70
8227;BMP180;4154;48.810;9.012;2022-07-12T01:42:36;97768.00;;;15.60
8227;BMP180;4154;48.810;9.012;2022-07-12T01:45:05;97769.00;;;15.60
8227;BMP180;4154;48.810;9.012;2022-07-12T01:47:33;97772.00;;;15.60
8227;BMP180;4154;48.810;9.012;2022-07-12T01:49:59;97769.00;;;15.60
8227;BMP180;4154;48.810;9.012;2022-07-12T01:52:26;97771.00;;;15.50
8227;BMP180;4154;48.810;9.012;2022-07-12T01:54:54;97772.00;;;15.50
8227;BMP180;4154;48.810;9.012;2022-07-12T01:57:21;97767.00;;;15.50
8227;BMP180;4154;48.810;9.012;2022-07-12T01:59:47;97762.00;;;15.50
8227;BMP180;4154;48.810;9.012;2022-07-12T02:02:13;97765.00;;;15.50
8227;BMP180;4154;48.810;9.012;2022-07-12T02:04:39;97766.00;;;15.50
8227;BMP180;4154;48.810;9.012;2022-07-12T02:07:05;97773.00;;;15.50
8227;BMP180;4154;48.810;9.012;2022-07-12T02:09:32;97779.00;;;15.50
8227;BMP180;4154;48.810;9.012;2022-07-12T02:11:58;97769.00;;;15.50
8227;BMP180;4154;48.810;9.012;2022-07-12T02:14:24;97776.00;;;15.40
8227;BMP180;4154;48.810;9.012;2022-07-12T02:16:50;97768.00;;;15.40
8227;BMP180;4154;48.810;9.012;2022-07-12T02:19:16;97774.00;;;15.40
8227;BMP180;4154;48.810;9.012;2022-07-12T02:21:42;97775.00;;;15.40
8227;BMP180;4154;48.810;9.012;2022-07-12T02:24:08;97766.00;;;15.30
8227;BMP180;4154;48.810;9.012;2022-07-12T02:26:35;97769.00;;;15.30
8227;BMP180;4154;48.810;9.012;2022-07-12T02:29:03;97756.00;;;15.30
8227;BMP180;4154;48.810;9.012;2022-07-12T02:31:29;97753.00;;;15.30
8227;BMP180;4154;48.810;9.012;2022-07-12T02:33:55;97760.00;;;15.30
8227;BMP180;4154;48.810;9.012;2022-07-12T02:36:22;97760.00;;;15.20
8227;BMP180;4154;48.810;9.012;2022-07-12T02:38:48;97760.00;;;15.20
8227;BMP180;4154;48.810;9.012;2022-07-12T02:41:14;97752.00;;;15.20
8227;BMP180;4154;48.810;9.012;2022-07-12T02:43:39;97753.00;;;15.20
8227;BMP180;4154;48.810;9.012;2022-07-12T02:46:11;97754.00;;;15.10
8227;BMP180;4154;48.810;9.012;2022-07-12T02:48:38;97762.00;;;15.00
8227;BMP180;4154;48.810;9.012;2022-07-12T02:51:06;97757.00;;;15.00
8227;BMP180;4154;48.810;9.012;2022-07-12T02:53:34;97755.00;;;14.90
8227;BMP180;4154;48.810;9.012;2022-07-12T02:56:00;97761.00;;;14.90
8227;BMP180;4154;48.810;9.012;2022-07-12T02:58:26;97755.00;;;14.90
8227;BMP180;4154;48.810;9.012;2022-07-12T03:00:52;97740.00;;;14.90
8227;BMP180;4154;48.810;9.012;2022-07-12T03:03:19;97752.00;;;14.90
8227;BMP180;4154;48.810;9.012;2022-07-12T03:05:45;97769.00;;;14.80
8227;BMP180;4154;48.810;9.012;2022-07-12T03:08:12;97758.00;;;14.80
8227;BMP180;4154;48.810;9.012;2022-07-12T03:10:39;97761.00;;;14.80
8227;BMP180;4154;48.810;9.012;2022-07-12T03:13:06;97761.00;;;14.70
8227;BMP180;4154;48.810;9.012;2022-07-12T03:15:32;97767.00;;;14.70
8227;BMP180;4154;48.810;9.012;2022-07-12T03:18:00;97772.00;;;14.70
8227;BMP180;4154;48.810;9.012;2022-07-12T03:20:29;97766.00;;;14.80
8227;BMP180;4154;48.810;9.012;2022-07-12T03:22:55;97775.00;;;14.70
8227;BMP180;4154;48.810;9.012;2022-07-12T03:25:21;97771.00;;;14.70
8227;BMP180;4154;48.810;9.012;2022-07-12T03:27:48;97769.00;;;14.70
8227;BMP180;4154;48.810;9.012;2022-07-12T03:30:15;97776.00;;;14.70
8227;BMP180;4154;48.810;9.012;2022-07-12T03:32:41;97780.00;;;14.70
8227;BMP180;4154;48.810;9.012;2022-07-12T03:35:08;97788.00;;;14.70
8227;BMP180;4154;48.810;9.012;2022-07-12T03:37:48;97790.00;;;14.70
8227;BMP180;4154;48.810;9.012;2022-07-12T03:40:16;97793.00;;;14.70
8227;BMP180;4154;48.810;9.012;2022-07-12T03:42:43;97791.00;;;14.70
8227;BMP180;4154;48.810;9.012;2022-07-12T03:45:13;97794.00;;;14.70
8227;BMP180;4154;48.810;9.012;2022-07-12T03:47:40;97798.00;;;14.60
8227;BMP180;4154;48.810;9.012;2022-07-12T03:50:10;97801.00;;;14.70
8227;BMP180;4154;48.810;9.012;2022-07-12T03:52:37;97805.00;;;14.60
8227;BMP180;4154;48.810;9.012;2022-07-12T03:55:04;97806.00;;;14.60
8227;BMP180;4154;48.810;9.012;2022-07-12T03:57:31;97811.00;;;14.60
8227;BMP180;4154;48.810;9.012;2022-07-12T03:59:57;97808.00;;;14.60
8227;BMP180;4154;48.810;9.012;2022-07-12T04:02:23;97806.00;;;14.60
8227;BMP180;4154;48.810;9.012;2022-07-12T04:04:51;97811.00;;;14.50
8227;BMP180;4154;48.810;9.012;2022-07-12T04:07:17;97808.00;;;14.50
8227;BMP180;4154;48.810;9.012;2022-07-12T04:09:44;97819.00;;;14.50
8227;BMP180;4154;48.810;9.012;2022-07-12T04:12:10;97821.00;;;14.50
8227;BMP180;4154;48.810;9.012;2022-07-12T04:14:36;97823.00;;;14.60
8227;BMP180;4154;48.810;9.012;2022-07-12T04:17:03;97821.00;;;14.60
8227;BMP180;4154;48.810;9.012;2022-07-12T04:19:32;97813.00;;;14.50
8227;BMP180;4154;48.810;9.012;2022-07-12T04:21:59;97808.00;;;14.50
8227;BMP180;4154;48.810;9.012;2022-07-12T04:24:25;97813.00;;;14.50
8227;BMP180;4154;48.810;9.012;2022-07-12T04:26:51;97803.00;;;14.50
8227;BMP180;4154;48.810;9.012;2022-07-12T04:29:18;97817.00;;;14.60
8227;BMP180;4154;48.810;9.012;2022-07-12T04:31:44;97803.00;;;14.60
8227;BMP180;4154;48.810;9.012;2022-07-12T04:34:11;97819.00;;;14.60
8227;BMP180;4154;48.810;9.012;2022-07-12T04:36:37;97817.00;;;14.60
8227;BMP180;4154;48.810;9.012;2022-07-12T04:39:03;97809.00;;;14.60
8227;BMP180;4154;48.810;9.012;2022-07-12T04:41:29;97814.00;;;14.60
8227;BMP180;4154;48.810;9.012;2022-07-12T04:44:03;97813.00;;;14.60
8227;BMP180;4154;48.810;9.012;2022-07-12T04:46:29;97808.00;;;14.70
8227;BMP180;4154;48.810;9.012;2022-07-12T04:48:54;97807.00;;;14.70
8227;BMP180;4154;48.810;9.012;2022-07-12T04:51:20;97805.00;;;14.70
8227;BMP180;4154;48.810;9.012;2022-07-12T04:53:46;97806.00;;;14.70
8227;BMP180;4154;48.810;9.012;2022-07-12T04:56:12;97799.00;;;14.80
8227;BMP180;4154;48.810;9.012;2022-07-12T04:58:38;97806.00;;;14.80
8227;BMP180;4154;48.810;9.012;2022-07-12T05:01:03;97809.00;;;14.80
8227;BMP180;4154;48.810;9.012;2022-07-12T05:03:29;97810.00;;;14.80
8227;BMP180;4154;48.810;9.012;2022-07-12T05:05:56;97822.00;;;14.90
8227;BMP180;4154;48.810;9.012;2022-07-12T05:08:22;97822.00;;;14.90
8227;BMP180;4154;48.810;9.012;2022-07-12T05:10:48;97822.00;;;14.90
8227;BMP180;4154;48.810;9.012;2022-07-12T05:13:14;97833.00;;;14.90
8227;BMP180;4154;48.810;9.012;2022-07-12T05:15:40;97824.00;;;15.00
8227;BMP180;4154;48.810;9.012;2022-07-12T05:18:05;97822.00;;;15.00
8227;BMP180;4154;48.810;9.012;2022-07-12T05:20:31;97825.00;;;15.00
8227;BMP180;4154;48.810;9.012;2022-07-12T05:22:57;97825.00;;;15.10
8227;BMP180;4154;48.810;9.012;2022-07-12T05:25:23;97811.00;;;15.20
8227;BMP180;4154;48.810;9.012;2022-07-12T05:27:49;97822.00;;;15.30
8227;BMP180;4154;48.810;9.012;2022-07-12T05:30:15;97827.00;;;15.30
8227;BMP180;4154;48.810;9.012;2022-07-12T05:32:41;97837.00;;;15.40
8227;BMP180;4154;48.810;9.012;2022-07-12T05:35:07;97832.00;;;15.50
8227;BMP180;4154;48.810;9.012;2022-07-12T05:37:33;97835.00;;;15.50
8227;BMP180;4154;48.810;9.012;2022-07-12T05:39:59;97842.00;;;15.60
8227;BMP180;4154;48.810;9.012;2022-07-12T05:42:25;97843.00;;;15.60
8227;BMP180;4154;48.810;9.012;2022-07-12T05:44:51;97842.00;;;15.60
8227;BMP180;4154;48.810;9.012;2022-07-12T05:47:16;97842.00;;;15.70
8227;BMP180;4154;48.810;9.012;2022-07-12T05:49:42;97852.00;;;15.80
8227;BMP180;4154;48.810;9.012;2022-07-12T05:52:08;97858.00;;;15.90
8227;BMP180;4154;48.810;9.012;2022-07-12T05:54:52;97858.00;;;15.90
8227;BMP180;4154;48.810;9.012;2022-07-12T05:57:18;97860.00;;;16.00
8227;BMP180;4154;48.810;9.012;2022-07-12T05:59:45;97860.00;;;16.10
8227;BMP180;4154;48.810;9.012;2022-07-12T06:02:11;97861.00;;;16.20
8227;BMP180;4154;48.810;9.012;2022-07-12T06:04:36;97868.00;;;16.30
8227;BMP180;4154;48.810;9.012;2022-07-12T06:07:03;97868.00;;;16.30
8227;BMP180;4154;48.810;9.012;2022-07-12T06:09:29;97872.00;;;16.40
8227;BMP180;4154;48.810;9.012;2022-07-12T06:11:55;97865.00;;;16.50
8227;BMP180;4154;48.810;9.012;2022-07-12T06:14:21;97865.00;;;16.50
8227;BMP180;4154;48.810;9.012;2022-07-12T06:16:47;97871.00;;;16.60
8227;BMP180;4154;48.810;9.012;2022-07-12T06:19:13;97881.00;;;16.70
8227;BMP180;4154;48.810;9.012;2022-07-12T06:21:39;97880.00;;;16.80
8227;BMP180;4154;48.810;9.012;2022-07-12T06:24:05;97882.00;;;16.80
8227;BMP180;4154;48.810;9.012;2022-07-12T06:26:31;97878.00;;;16.80
8227;BMP180;4154;48.810;9.012;2022-07-12T06:28:56;97877.00;;;16.80
8227;BMP180;4154;48.810;9.012;2022-07-12T06:31:23;97882.00;;;16.90
8227;BMP180;4154;48.810;9.012;2022-07-12T06:33:52;97875.00;;;17.00
8227;BMP180;4154;48.810;9.012;2022-07-12T06:36:18;97874.00;;;17.00
8227;BMP180;4154;48.810;9.012;2022-07-12T06:38:44;97879.00;;;17.10
8227;BMP180;4154;48.810;9.012;2022-07-12T06:41:10;97887.00;;;17.10
8227;BMP180;4154;48.810;9.012;2022-07-12T06:43:36;97884.00;;;17.10
8227;BMP180;4154;48.810;9.012;2022-07-12T06:46:02;97881.00;;;17.20
8227;BMP180;4154;48.810;9.012;2022-07-12T06:48:28;97885.00;;;17.30
8227;BMP180;4154;48.810;9.012;2022-07-12T06:50:54;97885.00;;;17.30
8227;BMP180;4154;48.810;9.012;2022-07-12T06:53:20;97880.00;;;17.40
8227;BMP180;4154;48.810;9.012;2022-07-12T06:55:46;97879.00;;;17.50
8227;BMP180;4154;48.810;9.012;2022-07-12T06:58:12;97877.00;;;17.50
8227;BMP180;4154;48.810;9.012;2022-07-12T07:00:38;97886.00;;;17.60
8227;BMP180;4154;48.810;9.012;2022-07-12T07:03:07;97885.00;;;17.60
8227;BMP180;4154;48.810;9.012;2022-07-12T07:05:35;97898.00;;;17.60
8227;BMP180;4154;48.810;9.012;2022-07-12T07:08:04;97901.00;;;17.70
8227;BMP180;4154;48.810;9.012;2022-07-12T07:10:31;97903.00;;;17.70
8227;BMP180;4154;48.810;9.012;2022-07-12T07:12:56;97903.00;;;17.80
8227;BMP180;4154;48.810;9.012;2022-07-12T07:15:22;97903.00;;;17.80
8227;BMP180;4154;48.810;9.012;2022-07-12T07:17:48;97913.00;;;17.90
8227;BMP180;4154;48.810;9.012;2022-07-12T07:20:15;97910.00;;;17.90
8227;BMP180;4154;48.810;9.012;2022-07-12T07:22:41;97916.00;;;18.00
8227;BMP180;4154;48.810;9.012;2022-07-12T07:25:07;97908.00;;;18.10
8227;BMP180;4154;48.810;9.012;2022-07-12T07:27:33;97912.00;;;18.10
8227;BMP180;4154;48.810;9.012;2022-07-12T07:29:59;97909.00;;;18.20
8227;BMP180;4154;48.810;9.012;2022-07-12T07:32:43;97907.00;;;18.30
8227;BMP180;4154;48.810;9.012;2022-07-12T07:35:11;97910.00;;;18.40
8227;BMP180;4154;48.810;9.012;2022-07-12T07:37:37;97904.00;;;18.50
8227;BMP180;4154;48.810;9.012;2022-07-12T07:40:04;97912.00;;;18.50
8227;BMP180;4154;48.810;9.012;2022-07-12T07:42:30;97909.00;;;18.50
8227;BMP180;4154;48.810;9.012;2022-07-12T07:44:55;97909.00;;;18.50
8227;BMP180;4154;48.810;9.012;2022-07-12T07:47:22;97916.00;;;18.70
8227;BMP180;4154;48.810;9.012;2022-07-12T07:49:48;97917.00;;;18.80
8227;BMP180;4154;48.810;9.012;2022-07-12T07:52:14;97919.00;;;18.90
8227;BMP180;4154;48.810;9.012;2022-07-12T07:54:40;97923.00;;;18.90
8227;BMP180;4154;48.810;9.012;2022-07-12T07:57:06;97932.00;;;18.90
8227;BMP180;4154;48.810;9.012;2022-07-12T07:59:32;97929.00;;;19.00
8227;BMP180;4154;48.810;9.012;2022-07-12T08:01:58;97920.00;;;19.00
8227;BMP180;4154;48.810;9.012;2022-07-12T08:04:24;97918.00;;;19.00
8227;BMP180;4154;48.810;9.012;2022-07-12T08:06:50;97914.00;;;19.00
8227;BMP180;4154;48.810;9.012;2022-07-12T08:09:16;97907.00;;;19.20
8227;BMP180;4154;48.810;9.012;2022-07-12T08:11:43;97917.00;;;19.30
8227;BMP180;4154;48.810;9.012;2022-07-12T08:14:09;97911.00;;;19.30
8227;BMP180;4154;48.810;9.012;2022-07-12T08:16:36;97910.00;;;19.40
8227;BMP180;4154;48.810;9.012;2022-07-12T08:19:03;97906.00;;;19.40
8227;BMP180;4154;48.810;9.012;2022-07-12T08:21:30;97906.00;;;19.40
8227;BMP180;4154;48.810;9.012;2022-07-12T08:23:56;97906.00;;;19.40
8227;BMP180;4154;48.810;9.012;2022-07-12T08:26:22;97903.00;;;19.70
8227;BMP180;4154;48.810;9.012;2022-07-12T08:28:48;97911.00;;;19.80
8227;BMP180;4154;48.810;9.012;2022-07-12T08:31:13;97912.00;;;19.80
8227;BMP180;4154;48.810;9.012;2022-07-12T08:33:40;97913.00;;;19.80
8227;BMP180;4154;48.810;9.012;2022-07-12T08:36:08;97910.00;;;19.90
8227;BMP180;4154;48.810;9.012;2022-07-12T08:38:38;97906.00;;;19.90
8227;BMP180;4154;48.810;9.012;2022-07-12T08:41:05;97916.00;;;19.90
8227;BMP180;4154;48.810;9.012;2022-07-12T08:43:34;97914.00;;;19.90
8227;BMP180;4154;48.810;9.012;2022-07-12T08:46:12;97915.00;;;20.10
8227;BMP180;4154;48.810;9.012;2022-07-12T08:48:40;97919.00;;;20.20
8227;BMP180;4154;48.810;9.012;2022-07-12T08:51:13;97924.00;;;20.20
8227;BMP180;4154;48.810;9.012;2022-07-12T08:53:40;97923.00;;;20.20
8227;BMP180;4154;48.810;9.012;2022-07-12T08:56:07;97925.00;;;20.30
8227;BMP180;4154;48.810;9.012;2022-07-12T08:58:33;97926.00;;;20.30
8227;BMP180;4154;48.810;9.012;2022-07-12T09:00:59;97922.00;;;20.30
8227;BMP180;4154;48.810;9.012;2022-07-12T09:03:25;97932.00;;;20.40
8227;BMP180;4154;48.810;9.012;2022-07-12T09:05:55;97938.00;;;20.50
8227;BMP180;4154;48.810;9.012;2022-07-12T09:08:42;97929.00;;;20.50
8227;BMP180;4154;48.810;9.012;2022-07-12T09:11:07;97923.00;;;20.50
8227;BMP180;4154;48.810;9.012;2022-07-12T09:13:53;97935.00;;;20.70
8227;BMP180;4154;48.810;9.012;2022-07-12T09:16:22;97926.00;;;20.80
8227;BMP180;4154;48.810;9.012;2022-07-12T09:18:50;97936.00;;;20.70
8227;BMP180;4154;48.810;9.012;2022-07-12T09:21:28;97936.00;;;20.80
8227;BMP180;4154;48.810;9.012;2022-07-12T09:23:58;97938.00;;;20.80
8227;BMP180;4154;48.810;9.012;2022-07-12T09:26:32;97923.00;;;20.90
8227;BMP180;4154;48.810;9.012;2022-07-12T09:29:09;97921.00;;;20.90
8227;BMP180;4154;48.810;9.012;2022-07-12T09:31:48;97933.00;;;20.90
8227;BMP180;4154;48.810;9.012;2022-07-12T09:34:33;97929.00;;;20.80
8227;BMP180;4154;48.810;9.012;2022-07-12T09:37:17;97924.00;;;20.90
8227;BMP180;4154;48.810;9.012;2022-07-12T09:39:44;97923.00;;;20.90
8227;BMP180;4154;48.810;9.012;2022-07-12T09:42:11;97922.00;;;21.00
8227;BMP180;4154;48.810;9.012;2022-07-12T09:44:39;97937.00;;;21.10
8227;BMP180;4154;48.810;9.012;2022-07-12T09:47:14;97926.00;;;21.20
8227;BMP180;4154;48.810;9.012;2022-07-12T09:49:42;97940.00;;;21.20
8227;BMP180;4154;48.810;9.012;2022-07-12T09:52:27;97937.00;;;21.30
8227;BMP180;4154;48.810;9.012;2022-07-12T09:54:55;97939.00;;;21.40
8227;BMP180;4154;48.810;9.012;2022-07-12T09:57:31;97941.00;;;21.50
8227;BMP180;4154;48.810;9.012;2022-07-12T10:00:00;97942.00;;;21.60
8227;BMP180;4154;48.810;9.012;2022-07-12T10:02:27;97940.00;;;21.80
8227;BMP180;4154;48.810;9.012;2022-07-12T10:04:54;97933.00;;;21.70
8227;BMP180;4154;48.810;9.012;2022-07-12T10:07:21;97946.00;;;21.60
8227;BMP180;4154;48.810;9.012;2022-07-12T10:09:53;97937.00;;;21.70
8227;BMP180;4154;48.810;9.012;2022-07-12T10:12:21;97957.00;;;21.80
8227;BMP180;4154;48.810;9.012;2022-07-12T10:14:59;97949.00;;;21.80
8227;BMP180;4154;48.810;9.012;2022-07-12T10:17:26;97947.00;;;21.80
8227;BMP180;4154;48.810;9.012;2022-07-12T10:20:26;97955.00;;;21.80
8227;BMP180;4154;48.810;9.012;2022-07-12T10:22:54;97948.00;;;21.90
8227;BMP180;4154;48.810;9.012;2022-07-12T10:28:00;97959.00;;;22.00
8227;BMP180;4154;48.810;9.012;2022-07-12T10:30:26;97960.00;;;22.10
8227;BMP180;4154;48.810;9.012;2022-07-12T10:32:55;97952.00;;;22.10
8227;BMP180;4154;48.810;9.012;2022-07-12T10:35:26;97945.00;;;22.10
8227;BMP180;4154;48.810;9.012;2022-07-12T10:40:37;97945.00;;;22.40
8227;BMP180;4154;48.810;9.012;2022-07-12T10:45:40;97941.00;;;22.40
8227;BMP180;4154;48.810;9.012;2022-07-12T10:53:36;97930.00;;;22.60
8227;BMP180;4154;48.810;9.012;2022-07-12T10:56:22;97932.00;;;22.60
8227;BMP180;4154;48.810;9.012;2022-07-12T10:59:00;97933.00;;;22.60
8227;BMP180;4154;48.810;9.012;2022-07-12T11:01:31;97935.00;;;22.70
8227;BMP180;4154;48.810;9.012;2022-07-12T11:04:10;97939.00;;;22.80
8227;BMP180;4154;48.810;9.012;2022-07-12T11:06:39;97942.00;;;22.80
8227;BMP180;4154;48.810;9.012;2022-07-12T11:09:11;97934.00;;;23.00
8227;BMP180;4154;48.810;9.012;2022-07-12T11:11:44;97938.00;;;23.00
8227;BMP180;4154;48.810;9.012;2022-07-12T11:14:13;97935.00;;;22.90
8227;BMP180;4154;48.810;9.012;2022-07-12T11:16:47;97932.00;;;23.00
8227;BMP180;4154;48.810;9.012;2022-07-12T11:19:14;97940.00;;;23.10
8227;BMP180;4154;48.810;9.012;2022-07-12T11:21:45;97926.00;;;23.10
8227;BMP180;4154;48.810;9.012;2022-07-12T11:24:22;97931.00;;;23.10
8227;BMP180;4154;48.810;9.012;2022-07-12T11:26:48;97941.00;;;23.20
8227;BMP180;4154;48.810;9.012;2022-07-12T11:29:15;97937.00;;;23.30
8227;BMP180;4154;48.810;9.012;2022-07-12T11:31:41;97920.00;;;23.40
8227;BMP180;4154;48.810;9.012;2022-07-12T11:34:07;97924.00;;;23.40
8227;BMP180;4154;48.810;9.012;2022-07-12T11:36:33;97928.00;;;23.50
8227;BMP180;4154;48.810;9.012;2022-07-12T11:39:00;97929.00;;;23.60
8227;BMP180;4154;48.810;9.012;2022-07-12T11:41:28;97934.00;;;23.70
8227;BMP180;4154;48.810;9.012;2022-07-12T11:43:54;97921.00;;;23.80
8227;BMP180;4154;48.810;9.012;2022-07-12T11:46:20;97932.00;;;23.90
8227;BMP180;4154;48.810;9.012;2022-07-12T11:48:45;97921.00;;;24.00
8227;BMP180;4154;48.810;9.012;2022-07-12T11:51:12;97927.00;;;24.00
8227;BMP180;4154;48.810;9.012;2022-07-12T11:53:40;97928.00;;;24.10
8227;BMP180;4154;48.810;9.012;2022-07-12T11:56:07;97932.00;;;24.10
8227;BMP180;4154;48.810;9.012;2022-07-12T11:58:34;97929.00;;;24.10
8227;BMP180;4154;48.810;9.012;2022-07-12T12:01:04;97935.00;;;24.20
8227;BMP180;4154;48.810;9.012;2022-07-12T12:03:42;97928.00;;;24.20
8227;BMP180;4154;48.810;9.012;2022-07-12T12:06:08;97924.00;;;24.20
8227;BMP180;4154;48.810;9.012;2022-07-12T12:08:34;97920.00;;;24.30
8227;BMP180;4154;48.810;9.012;2022-07-12T12:11:00;97922.00;;;24.40
8227;BMP180;4154;48.810;9.012;2022-07-12T12:13:28;97916.00;;;24.50
8227;BMP180;4154;48.810;9.012;2022-07-12T12:16:01;97919.00;;;24.60
8227;BMP180;4154;48.810;9.012;2022-07-12T12:18:39;97915.00;;;24.60
8227;BMP180;4154;48.810;9.012;2022-07-12T12:21:09;97910.00;;;24.60
8227;BMP180;4154;48.810;9.012;2022-07-12T12:23:37;97904.00;;;24.60
8227;BMP180;4154;48.810;9.012;2022-07-12T12:26:23;97895.00;;;24.60
8227;BMP180;4154;48.810;9.012;2022-07-12T12:28:53;97883.00;;;24.70
8227;BMP180;4154;48.810;9.012;2022-07-12T12:31:22;97885.00;;;24.70
8227;BMP180;4154;48.810;9.012;2022-07-12T12:33:54;97895.00;;;24.80
8227;BMP180;4154;48.810;9.012;2022-07-12T12:38:54;97883.00;;;24.90
8227;BMP180;4154;48.810;9.012;2022-07-12T12:41:22;97891.00;;;25.00
8227;BMP180;4154;48.810;9.012;2022-07-12T12:43:56;97902.00;;;25.10
8227;BMP180;4154;48.810;9.012;2022-07-12T12:46:51;97902.00;;;25.00
8227;BMP180;4154;48.810;9.012;2022-07-12T12:49:50;97902.00;;;25.00
8227;BMP180;4154;48.810;9.012;2022-07-12T12:52:18;97894.00;;;25.10
8227;BMP180;4154;48.810;9.012;2022-07-12T12:54:45;97883.00;;;25.20
8227;BMP180;4154;48.810;9.012;2022-07-12T12:57:12;97890.00;;;25.20
8227;BMP180;4154;48.810;9.012;2022-07-12T12:59:38;97895.00;;;25.30
8227;BMP180;4154;48.810;9.012;2022-07-12T13:02:06;97900.00;;;25.40
8227;BMP180;4154;48.810;9.012;2022-07-12T13:04:35;97892.00;;;25.30
8227;BMP180;4154;48.810;9.012;2022-07-12T13:07:02;97898.00;;;25.30
8227;BMP180;4154;48.810;9.012;2022-07-12T13:09:29;97888.00;;;25.40
8227;BMP180;4154;48.810;9.012;2022-07-12T13:11:55;97894.00;;;25.60
8227;BMP180;4154;48.810;9.012;2022-07-12T13:14:21;97895.00;;;25.60
8227;BMP180;4154;48.810;9.012;2022-07-12T13:16:47;97888.00;;;25.60
8227;BMP180;4154;48.810;9.012;2022-07-12T13:19:14;97894.00;;;25.60
8227;BMP180;4154;48.810;9.012;2022-07-12T13:21:40;97900.00;;;25.70
8227;BMP180;4154;48.810;9.012;2022-07-12T13:24:06;97890.00;;;25.70
8227;BMP180;4154;48.810;9.012;2022-07-12T13:26:32;97893.00;;;25.70
8227;BMP180;4154;48.810;9.012;2022-07-12T13:28:58;97888.00;;;25.70
8227;BMP180;4154;48.810;9.012;2022-07-12T13:31:24;97899.00;;;25.70
8227;BMP180;4154;48.810;9.012;2022-07-12T13:33:52;97891.00;;;25.70
8227;BMP180;4154;48.810;9.012;2022-07-12T13:36:19;97895.00;;;25.80
8227;BMP180;4154;48.810;9.012;2022-07-12T13:38:46;97897.00;;;25.90
8227;BMP180;4154;48.810;9.012;2022-07-12T13:41:12;97891.00;;;26.00
8227;BMP180;4154;48.810;9.012;2022-07-12T13:43:38;97888.00;;;26.00
8227;BMP180;4154;48.810;9.012;2022-07-12T13:46:04;97902.00;;;26.10
8227;BMP180;4154;48.810;9.012;2022-07-12T13:48:30;97904.00;;;26.10
8227;BMP180;4154;48.810;9.012;2022-07-12T13:50:56;97902.00;;;26.10
8227;BMP180;4154;48.810;9.012;2022-07-12T13:53:22;97902.00;;;26.10
8227;BMP180;4154;48.810;9.012;2022-07-12T13:55:48;97908.00;;;26.10
8227;BMP180;4154;48.810;9.012;2022-07-12T13:58:14;97905.00;;;26.10
8227;BMP180;4154;48.810;9.012;2022-07-12T14:00:41;97898.00;;;26.00
8227;BMP180;4154;48.810;9.012;2022-07-12T14:03:07;97899.00;;;26.00
8227;BMP180;4154;48.810;9.012;2022-07-12T14:05:34;97898.00;;;26.10
8227;BMP180;4154;48.810;9.012;2022-07-12T14:08:00;97898.00;;;26.20
8227;BMP180;4154;48.810;9.012;2022-07-12T14:10:27;97902.00;;;26.10
8227;BMP180;4154;48.810;9.012;2022-07-12T14:12:53;97897.00;;;26.10
8227;BMP180;4154;48.810;9.012;2022-07-12T14:15:19;97908.00;;;26.10
8227;BMP180;4154;48.810;9.012;2022-07-12T14:17:49;97904.00;;;26.00
8227;BMP180;4154;48.810;9.012;2022-07-12T14:20:22;97897.00;;;26.00
8227;BMP180;4154;48.810;9.012;2022-07-12T14:22:49;97899.00;;;26.00
8227;BMP180;4154;48.810;9.012;2022-07-12T14:25:16;97892.00;;;26.00
8227;BMP180;4154;48.810;9.012;2022-07-12T14:27:42;97893.00;;;26.00
8227;BMP180;4154;48.810;9.012;2022-07-12T14:30:12;97889.00;;;26.10
8227;BMP180;4154;48.810;9.012;2022-07-12T14:32:39;97892.00;;;26.10
8227;BMP180;4154;48.810;9.012;2022-07-12T14:35:06;97892.00;;;26.10
8227;BMP180;4154;48.810;9.012;2022-07-12T14:37:34;97885.00;;;26.10
8227;BMP180;4154;48.810;9.012;2022-07-12T14:40:01;97883.00;;;26.30
8227;BMP180;4154;48.810;9.012;2022-07-12T14:42:27;97884.00;;;26.20
8227;BMP180;4154;48.810;9.012;2022-07-12T14:44:53;97892.00;;;26.30
8227;BMP180;4154;48.810;9.012;2022-07-12T14:47:21;97894.00;;;26.40
8227;BMP180;4154;48.810;9.012;2022-07-12T14:49:47;97886.00;;;26.40
8227;BMP180;4154;48.810;9.012;2022-07-12T14:52:13;97892.00;;;26.40
8227;BMP180;4154;48.810;9.012;2022-07-12T14:54:38;97888.00;;;26.40